Level Cross, North Carolina
Current Conditions -  °F | °C
As of 1:15 PM on Sunday 25 Jan 2015 (Local Time) from KHBI Reporting Station
Clear Clear  
Wind Chill: 52°   Ceiling: Unl
Heat Index: 52°   Visibility: 10mi
Dew Point: 30°   Wind: 9mph
Humidity: 43%   Direction: 210°SSW
Pressure: 29.89"   Gusts: NA
Location:  35.8558°N, 79.7985°W
Report Text: KHBI 251815Z AUTO 21008KT 10SM CLR 11/M01 A2989 RMK AO2 T01121010
Loading
Personal Weather Stations






























Interactive Weather Map New forecast layout! Learn more

10-Day Weather Forecast

Advertisements
Track Severe Weather on mobile